ADDS METAR Data INFO
IDs: Format: Raw Decoded Include TAF

Data at: 2025 UTC 18 Jul 2018

METAR for:KSPB (Scappoose Ind Airpar, OR, US)
Text:KSPB 181953Z AUTO 04008KT 010V110 10SM CLR 24/15 A3019 RMK AO2 SLP222 T02390150
Temperature: 23.9°C ( 75°F)
Dewpoint: 15.0°C ( 59°F) [RH = 57%]
Pressure (altimeter):30.19 inches Hg (1022.4 mb) [Sea level pressure: 1022.2 mb]
Winds:from the NE (40 degrees) at 9 MPH (8 knots; 4.1 m/s)
Visibility:10 or more sm (16+ km)
Ceiling:at least 12,000 feet AGL
Clouds:sky clear below 12,000 feet AGL
QC Flag:automated observation with no human augmentation